Skip to main content

NOAA/GLERL Met Station at Chicago, IL

Previous 5 days (top of hour only)
See also Previous 3 Hours (2 minute increments)
Jump down to Data
Switch to [English][Metric]
Zoom: Click and drag, Pan: shift-click and drag, Unzoom: double-click, Unzoom All




Note: Speed = mean wind during 2-minute period at top of hour,
Gust = max wind during 2-minute period at top of hour,
Peak = max wind during entire hour.
• See also 5-day windrose plot


NOAA/GLERL Met Station at Chicago, IL

Previous 5 days (top of hour only)
See also Previous 3 Hours (2 minute increments)
Jump up to Graphs
Switch to [English][Metric]
                  Wind  Wind  Wind   Air   Dew   Rel
                   Spd   Gst   Dir  Temp    Pt   Hum
YYYY-MM-DD   CDT   kts   kts   deg     F     F     %
2017-10-19 11:00   3.7   4.3   351  60.3  30.7  32.3
2017-10-19 10:00   6.0   6.6   325  59.5  37.1  42.8
2017-10-19 09:00   7.8   8.9   320  58.8  39.8  48.8
2017-10-19 08:00   9.1  10.9   311  58.1  41.4  53.3
2017-10-19 07:00  11.3  13.0   284  57.4  47.2  68.5
2017-10-19 06:00  14.6  15.7   269  58.1  48.3  69.6
2017-10-19 05:00  14.4  17.7   265  59.0  48.8  68.5
2017-10-19 04:00  14.2  16.3   242  61.0  48.7  63.5
2017-10-19 03:00  18.7  20.6   236  62.2  47.4  57.9
2017-10-19 02:00  20.0  26.6   224  62.6  47.7  57.7
2017-10-19 01:00  21.2  25.7   217  62.4  47.1  56.9
2017-10-19 00:00  22.2  26.2   211  63.5  46.8  54.1
2017-10-18 23:00  25.7  29.0   215  64.6  45.0  48.5
2017-10-18 22:00  19.1  21.8   209  64.6  46.0  50.5
2017-10-18 21:00  20.4  22.7   197  65.1  45.9  49.3
2017-10-18 20:00  20.4  22.4   196  66.4  44.2  44.2
2017-10-18 19:00  18.9  20.0   199  67.6  44.1  42.1
2017-10-18 18:00  20.4  22.9   192  68.5  44.4  41.3
2017-10-18 17:00  21.8  24.3   192  69.3  44.5  40.4
2017-10-18 16:00  24.7  28.0   199  68.9  43.2  38.9
2017-10-18 15:00  25.1  26.8   198  68.4  42.9  39.2
2017-10-18 14:00  25.5  27.2   195  66.9  43.5  42.3
2017-10-18 13:00  20.0  22.0   200  65.5  44.9  46.8
2017-10-18 12:00  19.8  22.6   187  63.7  43.8  47.9
2017-10-18 11:00  17.1  19.1   182  60.8  44.8  55.1
2017-10-18 10:00  15.4  16.7   202  58.6  42.2  53.9
2017-10-18 09:00  18.7  19.8   207  55.8  42.5  60.6
2017-10-18 08:00  20.4  22.6   207  54.5  42.7  64.0
2017-10-18 07:00  19.8  21.8   205  54.1  42.3  63.9
2017-10-18 06:00  19.4  21.6   205  55.2  42.4  61.6
2017-10-18 05:00  17.3  19.4   204  55.4  42.3  61.1
2017-10-18 04:00  17.9  20.8   203  56.1  41.5  57.6
2017-10-18 03:00  16.7  20.0   205  56.8  42.0  57.3
2017-10-18 02:00  15.2  17.3   202  58.1  42.2  55.0
2017-10-18 01:00  14.8  18.1   207  59.0  41.9  52.6
2017-10-18 00:00  16.1  18.3   203  60.3  40.9  48.5
2017-10-17 23:00  15.9  18.3   202  61.5  43.0  50.1
2017-10-17 22:00  18.5  21.2   199  62.4  41.8  46.4
2017-10-17 21:00  15.9  17.5   192  63.9  42.6  45.4
2017-10-17 20:00  16.5  18.3   206  65.7  42.8  42.9
2017-10-17 19:00  15.6  17.5   200  67.1  43.0  41.2
2017-10-17 18:00  12.8  14.4   209  68.2  44.6  42.2
2017-10-17 17:00  17.7  20.8   225  69.6  39.8  33.3
2017-10-17 16:00  14.4  18.1   228  69.4  40.6  34.5
2017-10-17 15:00  23.5  28.0   219  68.7  40.2  34.9
2017-10-17 14:00  19.8  24.5   220  67.6  41.8  38.5
2017-10-17 13:00  19.2  26.8   230  66.2  41.7  40.4
2017-10-17 12:00  18.7  23.1   235  63.7  42.3  45.3
2017-10-17 11:00  16.7  20.2   227  61.5  41.9  48.1
2017-10-17 10:00  21.4  24.5   221  58.3  42.3  54.9
2017-10-17 09:00  25.7  30.1   220  56.1  42.4  59.6
2017-10-17 08:00  22.2  26.6   213  53.8  41.2  62.0
2017-10-17 07:00  22.6  25.5   215  55.2  40.6  57.6
2017-10-17 06:00  21.6  24.3   221  57.0  39.7  52.0
2017-10-17 05:00  19.6  22.2   226  57.7  38.2  47.7
2017-10-17 04:00  21.0  22.6   208  56.3  39.5  53.0
2017-10-17 03:00  17.7  19.6   201  55.9  41.1  57.2
2017-10-17 02:00  15.9  17.3   200  56.8  40.5  54.0
2017-10-17 01:00  16.1  17.7   201  56.7  39.9  53.0
2017-10-17 00:00  14.4  15.6   208  57.9  39.8  50.4
2017-10-16 23:00  15.4  17.5   208  58.1  38.4  47.5
2017-10-16 22:00  10.1  10.5   199  59.2  39.5  47.6
2017-10-16 21:00  10.7  11.7   204  59.9  38.8  45.2
2017-10-16 20:00   9.9  11.3   233  61.5  35.6  37.6
2017-10-16 19:00   9.5  11.7   233  61.9  35.3  36.7
2017-10-16 18:00   9.7  13.2   257  62.2  34.9  35.6
2017-10-16 17:00  12.8  15.6   257  62.4  35.8  36.7
2017-10-16 16:00   8.4   9.5   247  61.7  36.3  38.4
2017-10-16 15:00  12.4  14.2   270  60.8  36.3  39.6
2017-10-16 14:00   7.6  10.5   230  59.9  38.0  43.8
2017-10-16 13:00  10.5  13.2   243  58.3  38.5  47.3
2017-10-16 12:00   7.8  12.8   226  56.7  38.5  50.2
2017-10-16 11:00  12.2  13.6   250  54.7  37.0  51.0
2017-10-16 10:00   6.4   7.8   242  52.3  41.0  65.0
2017-10-16 09:00  13.2  15.0   275  49.6  40.9  71.7
2017-10-16 08:00  13.8  15.4   274  48.9  40.1  71.4
2017-10-16 07:00  11.9  13.2   273  48.4  41.0  75.5
2017-10-16 06:00  14.4  16.3   273  48.6  41.5  76.4
2017-10-16 05:00  14.2  15.7   273  48.4  42.0  78.2
2017-10-16 04:00  11.3  12.2   277  49.3  43.2  79.3
2017-10-16 03:00  15.0  16.1   285  49.5  41.9  74.8
2017-10-16 02:00  13.0  15.2   291  49.8  41.7  73.4
2017-10-16 01:00  16.1  18.3   304  50.4  40.5  68.6
2017-10-16 00:00  16.1  18.1   299  51.4  39.8  64.0
2017-10-15 23:00  17.1  19.4   300  52.0  41.5  67.2
2017-10-15 22:00  16.5  18.7   303  52.7  42.3  67.4
2017-10-15 21:00  18.3  20.8   305  53.4  42.6  66.4
2017-10-15 20:00  16.1  19.8   297  54.1  43.5  67.0
2017-10-15 19:00  19.4  21.8   294  54.7  43.6  65.8
2017-10-15 18:00  14.0  15.9   321  55.8  43.3  62.7
2017-10-15 17:00  15.4  17.7   323  55.2  42.6  62.1
2017-10-15 16:00  16.3  17.9   325  54.7  42.8  63.9
2017-10-15 15:00  17.3  20.4   316  54.3  44.1  68.1
2017-10-15 14:00  23.5  27.2   316  53.1  44.6  72.6
2017-10-15 13:00  23.7  28.6   301  53.8  44.4  70.3
2017-10-15 12:00  21.0  24.5   290  54.0  45.4  72.4
2017-10-15 11:00  29.9  34.8   306  54.0  43.7  67.9
2017-10-15 10:00  31.7  35.0   291  55.4  45.8  69.8
2017-10-15 09:00  28.4  32.9   281  57.4  50.0  76.1
2017-10-15 08:00  21.6  24.1   279  59.5  54.6  83.5
2017-10-15 07:00  29.9  34.8   274  62.1  59.0  89.4
2017-10-15 06:00  24.7  27.6   270  66.4  63.2  89.3
2017-10-15 05:00  27.8  32.5   217  67.8  64.8  90.0
2017-10-15 04:00  25.3  29.5   216  68.5  65.2  88.8
2017-10-15 03:00  22.7  25.7   201  65.8  65.5  98.7
2017-10-15 02:00  24.9  26.8   209  67.6  64.4  89.3
2017-10-15 01:00  19.4  21.6   176  64.9  63.8  96.1
2017-10-15 00:00  14.8  15.7   172  64.4  63.5  96.9
2017-10-14 23:00  17.1  21.4   158  64.0  63.3  97.5
2017-10-14 22:00  15.6  16.5   111  66.9  63.1  87.3
2017-10-14 21:00   7.6  12.8    67  64.4  64.1  98.9
2017-10-14 20:00  19.4  23.1   141  64.9  64.5  98.6
2017-10-14 19:00  16.7  19.8   154  64.8  64.4  98.9